createdAt,value
2024-03-16T00:00:24.746Z,100194.34
2024-03-16T00:05:26.555Z,100195.22
2024-03-16T00:10:28.072Z,100196.13
2024-03-16T00:15:29.757Z,100193.47
2024-03-16T00:20:32.015Z,100186.41
2024-03-16T00:25:33.453Z,100189.94
2024-03-16T00:30:35.028Z,100194.34
2024-03-16T00:35:36.750Z,100181.16
2024-03-16T00:40:38.403Z,100181.16
2024-03-16T00:45:39.885Z,100180.28
2024-03-16T00:50:41.796Z,100182.91
2024-03-16T00:55:43.243Z,100175.88
2024-03-16T01:00:44.828Z,100174.09
2024-03-16T01:05:52.092Z,100174.09
2024-03-16T01:10:57.300Z,100168.81
2024-03-16T01:15:58.846Z,100162.66
2024-03-16T01:21:01.861Z,100152.94
2024-03-16T01:26:05.200Z,100152.94
2024-03-16T01:31:06.707Z,100148.53
2024-03-16T01:36:09.106Z,100148.53
2024-03-16T01:41:11.491Z,100150.31
2024-03-16T01:46:16.800Z,100135.34
2024-03-16T01:51:18.479Z,100144.13
2024-03-16T01:56:20.274Z,100150.31
2024-03-16T02:01:22.809Z,100144.13
2024-03-16T02:06:25.772Z,100142.38
2024-03-16T02:11:27.590Z,100149.44
2024-03-16T02:16:30.192Z,100148.53
2024-03-16T02:21:31.707Z,100147.66
2024-03-16T02:26:33.692Z,100143.25
2024-03-16T02:31:37.526Z,100136.19
2024-03-16T02:36:39.056Z,100145.00
2024-03-16T02:41:40.887Z,100150.28
2024-03-16T02:46:42.382Z,100154.69
2024-03-16T02:51:44.221Z,100142.34
2024-03-16T02:56:45.853Z,100145.00
2024-03-16T03:01:47.407Z,100140.56
2024-03-16T03:06:48.949Z,100137.06
2024-03-16T03:11:50.455Z,100136.16
2024-03-16T03:16:51.905Z,100139.69
2024-03-16T03:21:53.450Z,100135.25
2024-03-16T03:26:55.473Z,100135.25
2024-03-16T03:31:58.299Z,100144.06
2024-03-16T03:36:59.930Z,100139.66
2024-03-16T03:42:01.573Z,100143.16
2024-03-16T03:47:04.460Z,100150.19
2024-03-16T03:52:06.608Z,100144.88
2024-03-16T03:57:08.277Z,100148.41
2024-03-16T04:02:10.325Z,100142.25
2024-03-16T04:07:11.874Z,100137.84
2024-03-16T04:12:13.895Z,100138.72
2024-03-16T04:17:15.490Z,100144.00
2024-03-16T04:22:17.400Z,100136.94
2024-03-16T04:27:19.003Z,100148.38
2024-03-16T04:32:22.776Z,100147.50
2024-03-16T04:37:24.244Z,100145.72
2024-03-16T04:42:25.882Z,100151.00
2024-03-16T04:47:27.399Z,100144.00
2024-03-16T04:52:28.908Z,100146.63
2024-03-16T04:57:30.466Z,100155.44
2024-03-16T05:02:32.021Z,100162.47
2024-03-16T05:07:33.519Z,100156.31
2024-03-16T05:12:35.045Z,100166.03
2024-03-16T05:17:40.276Z,100173.09
2024-03-16T05:22:41.846Z,100170.47
2024-03-16T05:27:44.157Z,100164.34
2024-03-16T05:32:45.641Z,100173.16
2024-03-16T05:37:47.132Z,100173.16
2024-03-16T05:42:48.616Z,100167.91
2024-03-16T05:47:50.103Z,100174.97
2024-03-16T05:52:52.711Z,100182.03
2024-03-16T05:57:54.228Z,100178.50
2024-03-16T06:02:57.087Z,100173.22
2024-03-16T06:07:58.591Z,100181.16
2024-03-16T06:13:00.437Z,100181.13
2024-03-16T06:18:01.944Z,100184.66
2024-03-16T06:23:03.681Z,100194.34
2024-03-16T06:28:10.327Z,100194.34
2024-03-16T06:33:12.601Z,100195.22
2024-03-16T06:38:14.932Z,100194.31
2024-03-16T06:43:16.690Z,100196.94
2024-03-16T06:48:18.995Z,100203.03
2024-03-16T06:53:20.493Z,100204.75
2024-03-16T06:58:22.848Z,100203.81
2024-03-16T07:03:24.800Z,100207.31
2024-03-16T07:08:26.318Z,100209.91
2024-03-16T07:13:27.809Z,100220.47
2024-03-16T07:18:29.322Z,100224.84
2024-03-16T07:23:30.917Z,100226.50
2024-03-16T07:28:36.501Z,100225.56
2024-03-16T07:33:39.062Z,100221.06
2024-03-16T07:38:40.887Z,100229.81
2024-03-16T07:43:45.068Z,100221.75
2024-03-16T07:48:47.046Z,100239.16
2024-03-16T07:53:55.057Z,100224.53
2024-03-16T07:58:58.796Z,100215.19
2024-03-16T08:04:00.930Z,100227.00
2024-03-16T08:09:02.537Z,100221.00
2024-03-16T08:14:06.520Z,100216.97
2024-03-16T08:19:08.209Z,100217.31
2024-03-16T08:24:09.757Z,100205.13
2024-03-16T08:29:11.162Z,100209.72
2024-03-16T08:34:13.650Z,100212.50
2024-03-16T08:39:15.258Z,100211.84
2024-03-16T08:44:16.661Z,100209.34
2024-03-16T08:49:19.073Z,100208.41
2024-03-16T08:54:20.688Z,100211.75
2024-03-16T08:59:22.257Z,100210.88
2024-03-16T09:04:24.327Z,100203.72
2024-03-16T09:09:28.315Z,100208.94
2024-03-16T09:14:29.736Z,100197.84
2024-03-16T09:19:32.087Z,100203.94
2024-03-16T09:24:34.362Z,100179.28
2024-03-16T09:29:36.686Z,100195.31
2024-03-16T09:34:38.097Z,100207.44
2024-03-16T09:39:39.618Z,100196.28
